Time;durP1;ratioP1;P1;durP2;ratioP2;P2;SDS_P1;SDS_P2;PMS_P1;PMS_P2;Temp;Humidity;BMP_temperature;BMP_pressure;BME280_temperature;BME280_humidity;BME280_pressure;Samples;Min_cycle;Max_cycle;Signal;HPM_P1;HPM_P2
2023/04/15 00:00:03;;;;;;;;;;;;;;;12.80;51.01;95981.22;4182291;28;5720;-64
2023/04/15 00:02:15;;;;;;;;;;;;;;;12.83;50.82;95996.66;4180433;28;5703;-63
2023/04/15 00:04:18;;;;;;;;;;;;;;;12.80;51.29;95991.81;4178168;28;5737;-63
2023/04/15 00:06:21;;;;;;;;;;;;;;;12.79;50.99;96000.78;4179029;28;5712;-64
2023/04/15 00:08:25;;;;;;;;;;;;;;;12.79;51.19;95990.16;4179121;28;5737;-63
2023/04/15 00:10:28;;;;;;;;;;;;;;;12.78;51.44;95985.09;4171387;28;5841;-64
2023/04/15 00:12:31;;;;;;;;;;;;;;;12.79;51.28;95992.81;4168404;28;5733;-64
2023/04/15 00:14:34;;;;;;;;;;;;;;;12.79;51.78;95990.16;4175449;28;5697;-63
2023/04/15 00:16:37;;;;;;;;;;;;;;;12.82;51.47;95995.03;4176969;28;8635;-64
2023/04/15 00:18:40;;;;;;;;;;;;;;;12.82;51.50;95986.28;4176228;28;5730;-64
2023/04/15 00:20:43;;;;;;;;;;;;;;;12.81;51.79;95993.44;4176100;28;5725;-63
2023/04/15 00:22:46;;;;;;;;;;;;;;;12.80;51.91;95986.50;4177827;28;5846;-63
2023/04/15 00:24:50;;;;;;;;;;;;;;;12.82;51.80;95984.44;4181392;28;5724;-63
2023/04/15 00:26:53;;;;;;;;;;;;;;;12.83;51.82;95983.41;4183614;28;5709;-63
2023/04/15 00:28:56;;;;;;;;;;;;;;;12.86;51.94;95989.28;4182899;28;5731;-63
2023/04/15 00:30:58;;;;;;;;;;;;;;;12.85;52.13;95991.13;4177490;28;5891;-63
2023/04/15 00:33:02;;;;;;;;;;;;;;;12.82;52.05;95995.03;4183661;28;6542;-63
2023/04/15 00:35:06;;;;;;;;;;;;;;;12.83;52.45;95993.19;4187004;28;5620;-62
2023/04/15 00:37:09;;;;;;;;;;;;;;;12.79;52.46;95995.47;4199174;28;5616;-64
2023/04/15 00:39:12;;;;;;;;;;;;;;;12.78;52.32;95988.56;4199100;28;5814;-63
2023/04/15 00:41:16;;;;;;;;;;;;;;;12.78;52.32;95988.56;4200190;28;5647;-65
2023/04/15 00:43:19;;;;;;;;;;;;;;;12.75;52.50;95989.03;4200179;28;5624;-63
2023/04/15 00:45:22;;;;;;;;;;;;;;;12.73;52.67;95991.09;4196635;28;7479;-63
2023/04/15 00:47:27;;;;;;;;;;;;;;;12.74;53.00;95987.41;4198487;28;5806;-63
2023/04/15 00:49:31;;;;;;;;;;;;;;;12.73;53.00;95995.59;4196329;28;5865;-64
2023/04/15 00:51:35;;;;;;;;;;;;;;;12.70;52.90;95994.19;4199990;28;5825;-63
2023/04/15 00:53:38;;;;;;;;;;;;;;;12.72;53.10;96001.94;4195871;28;5697;-64
2023/04/15 00:55:41;;;;;;;;;;;;;;;12.71;52.93;95992.34;4199797;28;6310;-64
2023/04/15 00:57:45;;;;;;;;;;;;;;;12.69;53.19;95984.63;4193769;28;5624;-64
2023/04/15 00:59:48;;;;;;;;;;;;;;;12.66;52.94;95986.91;4198710;28;5631;-64
2023/04/15 01:01:52;;;;;;;;;;;;;;;12.64;53.17;95994.28;4198764;28;5259;-64
2023/04/15 01:03:57;;;;;;;;;;;;;;;12.63;53.34;95987.38;4199560;28;7796;-63
2023/04/15 01:06:01;;;;;;;;;;;;;;;12.62;53.42;95978.59;4198120;28;5648;-63
2023/04/15 01:08:07;;;;;;;;;;;;;;;12.64;53.71;95981.84;4196301;28;5616;-64
2023/04/15 01:10:10;;;;;;;;;;;;;;;12.64;53.53;95976.53;4196034;28;5702;-64
2023/04/15 01:12:15;;;;;;;;;;;;;;;12.63;53.56;95980.22;4194611;28;5743;-63
2023/04/15 01:14:19;;;;;;;;;;;;;;;12.59;53.67;95984.38;4198840;28;5624;-64
2023/04/15 01:16:22;;;;;;;;;;;;;;;12.55;53.82;95980.53;4196800;28;5702;-64
2023/04/15 01:18:26;;;;;;;;;;;;;;;12.56;53.69;95984.78;4196722;28;5661;-62
2023/04/15 01:20:29;;;;;;;;;;;;;;;12.59;53.91;95992.31;4198066;28;6659;-64
2023/04/15 01:22:34;;;;;;;;;;;;;;;12.61;53.90;95987.59;4193543;28;5753;-64
2023/04/15 01:24:37;;;;;;;;;;;;;;;12.63;53.81;95990.81;4197115;28;5627;-64
2023/04/15 01:26:42;;;;;;;;;;;;;;;12.62;53.62;95989.22;4198743;28;5761;-64
2023/04/15 01:28:46;;;;;;;;;;;;;;;12.63;54.08;95987.38;4186574;28;5762;-64
2023/04/15 01:30:49;;;;;;;;;;;;;;;12.65;53.86;95987.94;4197535;28;6646;-64
2023/04/15 01:32:52;;;;;;;;;;;;;;;12.64;53.86;95988.97;4198088;28;6310;-64
2023/04/15 01:34:54;;;;;;;;;;;;;;;12.65;54.01;95991.41;4198662;28;6212;-63
2023/04/15 01:36:57;;;;;;;;;;;;;;;12.64;53.92;95997.75;4197791;28;5636;-64
2023/04/15 01:39:00;;;;;;;;;;;;;;;12.65;53.99;95991.41;4197464;28;5624;-64
2023/04/15 01:41:06;;;;;;;;;;;;;;;12.68;54.29;95988.28;4200298;28;5624;-65
2023/04/15 01:43:10;;;;;;;;;;;;;;;12.67;54.31;95984.03;4197551;28;5646;-64
2023/04/15 01:45:13;;;;;;;;;;;;;;;12.64;54.15;95991.63;4199525;28;5640;-63
2023/04/15 01:47:16;;;;;;;;;;;;;;;12.62;54.28;95986.56;4193622;28;5623;-64
2023/04/15 01:49:19;;;;;;;;;;;;;;;12.63;54.78;95980.22;4196275;28;5734;-64
2023/04/15 01:51:22;;;;;;;;;;;;;;;12.62;54.37;95978.59;4198957;28;5620;-64
2023/04/15 01:53:25;;;;;;;;;;;;;;;12.63;54.69;95974.91;4198664;28;5643;-64
2023/04/15 01:55:28;;;;;;;;;;;;;;;12.64;54.82;95975.72;4199122;28;5859;-64
2023/04/15 01:57:31;;;;;;;;;;;;;;;12.65;55.01;95977.34;4192154;28;5714;-64
2023/04/15 01:59:35;;;;;;;;;;;;;;;12.65;54.54;95972.03;4192924;28;5627;-64
2023/04/15 02:01:38;;;;;;;;;;;;;;;12.64;54.67;95971.22;4193446;28;5732;-66
2023/04/15 02:03:41;;;;;;;;;;;;;;;12.63;54.86;95977.56;4199498;28;5635;-64
2023/04/15 02:05:44;;;;;;;;;;;;;;;12.64;54.87;95981.84;4196740;28;5930;-64
2023/04/15 02:07:48;;;;;;;;;;;;;;;12.65;54.94;95972.84;4185261;28;6449;-64
2023/04/15 02:09:51;;;;;;;;;;;;;;;12.65;55.30;95982.63;4191709;28;5632;-62
2023/04/15 02:11:54;;;;;;;;;;;;;;;12.65;55.15;95975.50;4196322;28;5644;-63
2023/04/15 02:13:56;;;;;;;;;;;;;;;12.64;55.38;95975.72;4193724;28;5730;-63
2023/04/15 02:16:00;;;;;;;;;;;;;;;12.61;55.25;95977.00;4189659;28;5727;-64
2023/04/15 02:18:04;;;;;;;;;;;;;;;12.56;54.95;95968.88;4191981;28;5627;-64
2023/04/15 02:20:09;;;;;;;;;;;;;;;12.54;55.31;95970.97;4183469;28;5808;-63
2023/04/15 02:22:17;;;;;;;;;;;;;;;12.53;55.25;95979.94;4195673;28;5644;-63
2023/04/15 02:24:20;;;;;;;;;;;;;;;12.53;55.47;95979.94;4188616;28;5699;-63
2023/04/15 02:26:24;;;;;;;;;;;;;;;12.55;55.59;95967.28;4199833;28;5802;-63
2023/04/15 02:28:27;;;;;;;;;;;;;;;12.55;55.44;95967.28;4200100;28;5955;-62
2023/04/15 02:30:30;;;;;;;;;;;;;;;12.54;55.81;95966.47;4184962;28;5671;-63
2023/04/15 02:32:34;;;;;;;;;;;;;;;12.59;55.91;95971.09;4198484;28;5717;-64
2023/04/15 02:34:40;;;;;;;;;;;;;;;12.60;55.57;95964.78;4192804;28;5718;-63
2023/04/15 02:36:42;;;;;;;;;;;;;;;12.61;56.00;95966.38;4198947;28;5827;-64
2023/04/15 02:38:45;;;;;;;;;;;;;;;12.63;55.87;95959.00;4196449;28;5620;-63
2023/04/15 02:40:49;;;;;;;;;;;;;;;12.64;55.79;95965.91;4191627;28;6473;-63
2023/04/15 02:42:52;;;;;;;;;;;;;;;12.66;55.79;95961.19;4184564;28;5698;-63
2023/04/15 02:44:55;;;;;;;;;;;;;;;12.67;56.12;95954.84;4201951;28;5623;-63
2023/04/15 02:46:58;;;;;;;;;;;;;;;12.66;55.71;95958.53;4199914;28;5683;-64
2023/04/15 02:49:02;;;;;;;;;;;;;;;12.66;55.98;95960.38;4196433;28;5691;-63
2023/04/15 02:51:12;;;;;;;;;;;;;;;12.66;56.18;95963.84;4200802;28;5632;-63
2023/04/15 02:53:16;;;;;;;;;;;;;;;12.67;55.85;95965.47;4201122;28;5631;-64
2023/04/15 02:55:19;;;;;;;;;;;;;;;12.67;55.92;95962.00;4201562;28;5202;-63
2023/04/15 02:57:21;;;;;;;;;;;;;;;12.64;56.09;95960.63;4200838;28;5631;-63
2023/04/15 02:59:24;;;;;;;;;;;;;;;12.62;56.42;95962.69;4196538;28;5628;-63
2023/04/15 03:01:27;;;;;;;;;;;;;;;12.61;56.49;95970.88;4196802;28;5655;-63
2023/04/15 03:03:30;;;;;;;;;;;;;;;12.62;56.28;95964.53;4199158;28;5809;-63
2023/04/15 03:05:34;;;;;;;;;;;;;;;12.61;56.51;95966.38;4199696;28;5708;-62
2023/04/15 03:07:39;;;;;;;;;;;;;;;12.61;56.52;95962.91;4201789;28;5822;-63
2023/04/15 03:09:41;;;;;;;;;;;;;;;12.59;56.33;95962.34;4199556;28;5619;-64
2023/04/15 03:11:44;;;;;;;;;;;;;;;12.59;56.62;95967.66;4195455;28;5640;-63
2023/04/15 03:13:47;;;;;;;;;;;;;;;12.60;56.40;95964.78;4195529;28;5631;-64
2023/04/15 03:15:50;;;;;;;;;;;;;;;12.60;56.67;95967.41;4177749;28;5865;-64
2023/04/15 03:17:53;;;;;;;;;;;;;;;12.59;56.23;95960.50;4198074;28;5734;-63
2023/04/15 03:19:56;;;;;;;;;;;;;;;12.58;56.46;95966.84;4199168;28;5790;-63
2023/04/15 03:22:00;;;;;;;;;;;;;;;12.57;56.46;95959.09;4201239;28;6464;-64
2023/04/15 03:24:03;;;;;;;;;;;;;;;12.56;56.62;95958.28;4201690;28;5652;-64
2023/04/15 03:26:06;;;;;;;;;;;;;;;12.58;56.73;95958.88;4199393;28;5718;-64
2023/04/15 03:28:08;;;;;;;;;;;;;;;12.60;56.42;95963.97;4201051;28;5632;-64
2023/04/15 03:30:12;;;;;;;;;;;;;;;12.59;56.72;95960.50;4198765;28;5628;-63
2023/04/15 03:32:15;;;;;;;;;;;;;;;12.59;56.93;95963.16;4200558;28;5628;-64
2023/04/15 03:34:18;;;;;;;;;;;;;;;12.59;56.62;95957.84;4196002;28;5639;-64
2023/04/15 03:36:21;;;;;;;;;;;;;;;12.59;56.79;95954.38;4201102;28;5869;-64
2023/04/15 03:38:25;;;;;;;;;;;;;;;12.61;56.69;95955.78;4197941;28;5636;-64
2023/04/15 03:40:28;;;;;;;;;;;;;;;12.60;56.57;95958.66;4197691;28;5770;-63
2023/04/15 03:42:31;;;;;;;;;;;;;;;12.59;56.90;95957.84;4200055;28;5734;-64
2023/04/15 03:44:34;;;;;;;;;;;;;;;12.58;56.81;95953.59;4200294;28;5787;-64
2023/04/15 03:46:37;;;;;;;;;;;;;;;12.57;56.88;95956.44;4196782;28;5865;-63
2023/04/15 03:48:41;;;;;;;;;;;;;;;12.55;56.75;95954.00;4196589;28;5619;-64
2023/04/15 03:50:43;;;;;;;;;;;;;;;12.53;56.95;95948.94;4198593;28;5619;-64
2023/04/15 03:52:46;;;;;;;;;;;;;;;12.54;56.84;95949.75;4198230;28;5620;-64
2023/04/15 03:54:52;;;;;;;;;;;;;;;12.52;56.86;95949.97;4200997;28;5644;-64
2023/04/15 03:56:55;;;;;;;;;;;;;;;12.54;56.80;95955.84;4201710;28;5623;-64
2023/04/15 03:58:58;;;;;;;;;;;;;;;12.54;56.83;95958.50;4201115;28;5711;-63
2023/04/15 04:01:01;;;;;;;;;;;;;;;12.55;57.17;95959.31;4198832;28;5779;-64
2023/04/15 04:03:04;;;;;;;;;;;;;;;12.55;57.02;95956.66;4199305;28;5635;-63
2023/04/15 04:05:08;;;;;;;;;;;;;;;12.56;57.01;95955.63;4197139;28;5636;-63
2023/04/15 04:07:16;;;;;;;;;;;;;;;12.54;57.01;95952.41;4193427;28;5620;-63
2023/04/15 04:09:19;;;;;;;;;;;;;;;12.53;57.05;95948.94;4196545;28;5631;-63
2023/04/15 04:11:24;;;;;;;;;;;;;;;12.52;57.05;95954.47;4196575;28;5717;-64
2023/04/15 04:13:27;;;;;;;;;;;;;;;12.52;57.30;95951.81;4200768;28;5616;-63
2023/04/15 04:15:30;;;;;;;;;;;;;;;12.53;57.27;95958.75;4195256;28;5814;-63
2023/04/15 04:17:32;;;;;;;;;;;;;;;12.51;57.33;95951.00;4194734;28;5882;-63
2023/04/15 04:19:35;;;;;;;;;;;;;;;12.51;57.58;95951.00;4200634;28;5651;-63
2023/04/15 04:21:38;;;;;;;;;;;;;;;12.49;57.62;95957.59;4199361;28;5880;-63
2023/04/15 04:23:41;;;;;;;;;;;;;;;12.49;57.51;95954.94;4195147;28;5636;-63
2023/04/15 04:25:44;;;;;;;;;;;;;;;12.50;57.60;95962.66;4185646;28;5765;-63
2023/04/15 04:27:48;;;;;;;;;;;;;;;12.50;57.56;95962.66;4200667;28;5635;-63
2023/04/15 04:29:51;;;;;;;;;;;;;;;12.48;57.39;95966.56;4199568;28;5648;-63
2023/04/15 04:31:54;;;;;;;;;;;;;;;12.46;57.32;95960.69;4198541;28;5639;-64
2023/04/15 04:33:56;;;;;;;;;;;;;;;12.46;57.54;95956.19;4199882;28;5629;-64
2023/04/15 04:35:59;;;;;;;;;;;;;;;12.48;57.62;95959.44;4199796;28;5684;-64
2023/04/15 04:38:02;;;;;;;;;;;;;;;12.47;57.88;95957.00;4180692;28;5737;-64
2023/04/15 04:40:07;;;;;;;;;;;;;;;12.47;57.92;95957.00;4200228;28;5838;-63
2023/04/15 04:42:10;;;;;;;;;;;;;;;12.47;57.70;95964.97;4199761;28;6310;-63
2023/04/15 04:44:14;;;;;;;;;;;;;;;12.49;57.90;95960.22;4200442;28;5654;-64
2023/04/15 04:46:17;;;;;;;;;;;;;;;12.49;57.82;95957.59;4195608;28;5631;-63
2023/04/15 04:48:20;;;;;;;;;;;;;;;12.47;57.96;95955.16;4197765;28;5714;-64
2023/04/15 04:50:22;;;;;;;;;;;;;;;12.48;57.78;95945.38;4197502;28;6330;-63
2023/04/15 04:52:25;;;;;;;;;;;;;;;12.49;58.30;95946.97;4199293;28;5651;-63
2023/04/15 04:54:30;;;;;;;;;;;;;;;12.49;57.92;95946.97;4199146;28;5718;-63
2023/04/15 04:56:33;;;;;;;;;;;;;;;12.48;57.82;95946.16;4198572;28;5620;-63
2023/04/15 04:58:37;;;;;;;;;;;;;;;12.44;58.13;95937.03;4199992;28;5793;-63
2023/04/15 05:00:41;;;;;;;;;;;;;;;12.46;58.26;95942.94;4195403;28;5818;-64
2023/04/15 05:02:44;;;;;;;;;;;;;;;12.48;58.35;95942.72;4193860;28;6310;-64
2023/04/15 05:04:48;;;;;;;;;;;;;;;12.47;58.15;95943.75;4197812;28;5643;-63
2023/04/15 05:06:51;;;;;;;;;;;;;;;12.46;58.59;95940.28;4199897;28;5635;-63
2023/04/15 05:08:55;;;;;;;;;;;;;;;12.48;58.17;95940.06;4187384;28;5651;-63
2023/04/15 05:10:58;;;;;;;;;;;;;;;12.46;58.71;95942.94;4188425;28;5742;-64
2023/04/15 05:13:01;;;;;;;;;;;;;;;12.47;58.73;95943.75;4196471;28;5874;-64
2023/04/15 05:15:05;;;;;;;;;;;;;;;12.46;58.65;95942.13;4199827;28;5631;-64
2023/04/15 05:17:10;;;;;;;;;;;;;;;12.46;58.81;95942.94;4197090;28;5646;-64
2023/04/15 05:19:13;;;;;;;;;;;;;;;12.45;58.43;95941.28;4195295;28;6318;-64
2023/04/15 05:21:16;;;;;;;;;;;;;;;12.46;58.58;95942.13;4198951;28;5820;-64
2023/04/15 05:23:19;;;;;;;;;;;;;;;12.47;58.72;95935.78;4195786;28;5691;-64
2023/04/15 05:25:22;;;;;;;;;;;;;;;12.44;58.88;95944.19;4198630;28;5652;-64
2023/04/15 05:27:25;;;;;;;;;;;;;;;12.45;58.85;95937.84;4197598;28;5635;-62
2023/04/15 05:29:28;;;;;;;;;;;;;;;12.46;58.62;95942.94;4199434;28;5727;-63
2023/04/15 05:31:31;;;;;;;;;;;;;;;12.47;58.93;95943.75;4196571;28;5640;-64
2023/04/15 05:33:36;;;;;;;;;;;;;;;12.47;58.94;95939.25;4196723;28;5648;-63
2023/04/15 05:35:39;;;;;;;;;;;;;;;12.50;58.79;95930.03;4200221;28;5640;-63
2023/04/15 05:37:43;;;;;;;;;;;;;;;12.52;58.85;95928.78;4191471;28;5750;-63
2023/04/15 05:39:47;;;;;;;;;;;;;;;12.53;59.15;95929.56;4198675;28;5623;-64
2023/04/15 05:41:50;;;;;;;;;;;;;;;12.53;58.93;95933.03;4191749;28;6424;-64
2023/04/15 05:43:52;;;;;;;;;;;;;;;12.53;58.88;95927.72;4197461;28;6658;-64
2023/04/15 05:45:55;;;;;;;;;;;;;;;12.54;59.15;95928.53;4195644;28;5766;-63
2023/04/15 05:47:58;;;;;;;;;;;;;;;12.53;58.98;95938.34;4198176;28;6295;-64
2023/04/15 05:50:03;;;;;;;;;;;;;;;12.52;59.26;95935.91;4192611;28;5884;-64
2023/04/15 05:52:06;;;;;;;;;;;;;;;12.53;59.40;95937.53;4195742;28;5628;-63
2023/04/15 05:54:09;;;;;;;;;;;;;;;12.54;59.13;95941.78;4198634;28;5632;-63
2023/04/15 05:56:11;;;;;;;;;;;;;;;12.54;59.38;95941.78;4177305;28;5761;-63
2023/04/15 05:58:14;;;;;;;;;;;;;;;12.56;59.47;95939.72;4199322;28;6862;-63
2023/04/15 06:00:17;;;;;;;;;;;;;;;12.60;59.34;95938.25;4198666;28;5651;-64
2023/04/15 06:02:20;;;;;;;;;;;;;;;12.62;59.31;95940.69;4195739;28;5823;-63
2023/04/15 06:04:23;;;;;;;;;;;;;;;12.60;59.14;95940.09;4193945;28;5640;-64
2023/04/15 06:06:28;;;;;;;;;;;;;;;12.61;59.25;95947.00;4183385;28;5642;-64
2023/04/15 06:08:31;;;;;;;;;;;;;;;12.57;59.33;95941.38;4198445;28;6444;-63
2023/04/15 06:10:35;;;;;;;;;;;;;;;12.58;59.66;95945.63;4198671;28;5647;-63
2023/04/15 06:12:38;;;;;;;;;;;;;;;12.56;59.31;95947.69;4184175;28;6348;-63
2023/04/15 06:14:41;;;;;;;;;;;;;;;12.57;59.54;95951.97;4191895;28;5650;-63
2023/04/15 06:16:44;;;;;;;;;;;;;;;12.55;59.58;95951.38;4194341;28;5687;-62
2023/04/15 06:18:46;;;;;;;;;;;;;;;12.56;59.75;95958.28;4194387;28;5717;-63
2023/04/15 06:20:49;;;;;;;;;;;;;;;12.58;59.62;95958.88;4195316;28;5270;-63
2023/04/15 06:22:53;;;;;;;;;;;;;;;12.57;59.79;95959.09;4176894;28;7753;-64
2023/04/15 06:24:56;;;;;;;;;;;;;;;12.55;59.88;95964.63;4192887;28;5638;-63
2023/04/15 06:27:01;;;;;;;;;;;;;;;12.50;59.74;95959.19;4188733;28;6344;-63
2023/04/15 06:29:04;;;;;;;;;;;;;;;12.48;59.72;95963.91;4200109;28;5651;-63
2023/04/15 06:31:07;;;;;;;;;;;;;;;12.47;59.69;95965.75;4198390;28;5077;-63
2023/04/15 06:33:09;;;;;;;;;;;;;;;12.46;60.14;95966.00;4193506;28;5750;-63
2023/04/15 06:35:12;;;;;;;;;;;;;;;12.42;60.09;95978.06;4196888;28;6410;-63
2023/04/15 06:37:15;;;;;;;;;;;;;;;12.44;60.00;95981.28;4184673;28;5820;-63
2023/04/15 06:39:20;;;;;;;;;;;;;;;12.44;59.94;95976.78;4185576;28;5716;-63
2023/04/15 06:41:22;;;;;;;;;;;;;;;12.44;60.08;95979.44;4184180;28;5891;-63
2023/04/15 06:43:25;;;;;;;;;;;;;;;12.45;60.30;95985.56;4185416;28;5852;-63
2023/04/15 06:45:28;;;;;;;;;;;;;;;12.47;60.32;95980.88;4184251;28;5855;-63
2023/04/15 06:47:31;;;;;;;;;;;;;;;12.45;60.15;95982.91;4184132;28;5712;-63
2023/04/15 06:49:34;;;;;;;;;;;;;;;12.43;60.16;95985.78;4182301;28;5720;-63
2023/04/15 06:51:37;;;;;;;;;;;;;;;12.45;60.40;95989.00;4185108;28;5704;-63
2023/04/15 06:53:41;;;;;;;;;;;;;;;12.43;60.60;95985.78;4185487;28;5716;-63
2023/04/15 06:55:45;;;;;;;;;;;;;;;12.41;60.45;95977.25;4177541;28;5720;-63
2023/04/15 06:57:48;;;;;;;;;;;;;;;12.42;60.25;95986.81;4177519;28;5864;-63
2023/04/15 06:59:53;;;;;;;;;;;;;;;12.43;60.63;95974.38;4184935;28;5799;-63
2023/04/15 07:01:56;;;;;;;;;;;;;;;12.44;60.80;95995.34;4183718;28;5945;-64
2023/04/15 07:03:59;;;;;;;;;;;;;;;12.44;60.82;95991.88;4184372;28;6426;-64
2023/04/15 07:06:05;;;;;;;;;;;;;;;12.41;60.77;95998.47;4178116;28;5872;-65
2023/04/15 07:08:08;;;;;;;;;;;;;;;12.40;60.55;95996.03;4181479;28;5886;-63
2023/04/15 07:10:11;;;;;;;;;;;;;;;12.43;60.84;95990.28;4181509;28;6423;-64
2023/04/15 07:12:16;;;;;;;;;;;;;;;12.42;60.67;95978.06;4183735;28;5712;-63
2023/04/15 07:14:19;;;;;;;;;;;;;;;12.42;60.72;95983.34;4169653;28;5880;-63
2023/04/15 07:16:22;;;;;;;;;;;;;;;12.43;60.80;95984.97;4181078;28;5720;-63
2023/04/15 07:18:25;;;;;;;;;;;;;;;12.43;61.09;95982.31;4180314;28;5697;-63
2023/04/15 07:20:28;;;;;;;;;;;;;;;12.44;60.90;95981.28;4183829;28;5783;-63
2023/04/15 07:22:31;;;;;;;;;;;;;;;12.44;60.71;95976.78;4177809;28;5743;-63
2023/04/15 07:24:34;;;;;;;;;;;;;;;12.44;61.01;95983.94;4185002;28;5728;-63
2023/04/15 07:26:37;;;;;;;;;;;;;;;12.44;61.04;95986.59;4180169;28;5792;-63
2023/04/15 07:28:41;;;;;;;;;;;;;;;12.44;60.74;95983.94;4181130;28;5700;-63
2023/04/15 07:30:44;;;;;;;;;;;;;;;12.43;60.83;95975.19;4183760;28;6525;-63
2023/04/15 07:32:47;;;;;;;;;;;;;;;12.46;61.22;95985.34;4183677;28;5894;-63
2023/04/15 07:34:50;;;;;;;;;;;;;;;12.42;60.83;95978.06;4183842;28;5716;-63
2023/04/15 07:36:53;;;;;;;;;;;;;;;12.40;61.28;95986.25;4184539;28;5711;-64
2023/04/15 07:38:56;;;;;;;;;;;;;;;12.43;60.95;95985.78;4183471;28;5727;-63
2023/04/15 07:40:59;;;;;;;;;;;;;;;12.43;61.18;95982.31;4183372;28;5720;-63
2023/04/15 07:43:02;;;;;;;;;;;;;;;12.46;61.16;95984.56;4184552;28;5941;-63
2023/04/15 07:45:08;;;;;;;;;;;;;;;12.47;61.05;95989.63;4175118;28;5902;-63
2023/04/15 07:47:10;;;;;;;;;;;;;;;12.48;61.38;95993.88;4173932;28;5772;-63
2023/04/15 07:49:14;;;;;;;;;;;;;;;12.48;61.41;95988.59;4174265;28;5716;-63
2023/04/15 07:51:18;;;;;;;;;;;;;;;12.48;61.30;95991.25;4176395;28;6830;-63
2023/04/15 07:53:20;;;;;;;;;;;;;;;12.49;61.29;95995.50;4176817;28;5930;-63
2023/04/15 07:55:23;;;;;;;;;;;;;;;12.53;61.37;95996.66;4180873;28;5806;-63
2023/04/15 07:57:28;;;;;;;;;;;;;;;12.56;61.33;95992.75;4173657;28;5819;-63
2023/04/15 07:59:32;;;;;;;;;;;;;;;12.58;61.45;95990.72;4175736;28;5943;-64
2023/04/15 08:01:36;;;;;;;;;;;;;;;12.56;61.21;95990.09;4175435;28;6486;-63
2023/04/15 08:03:39;;;;;;;;;;;;;;;12.57;61.29;95996.19;4177766;28;5851;-63
2023/04/15 08:05:43;;;;;;;;;;;;;;;12.61;61.68;95992.91;4176663;28;5713;-64
2023/04/15 08:07:46;;;;;;;;;;;;;;;12.65;61.58;95999.34;4177532;28;5708;-64
2023/04/15 08:09:49;;;;;;;;;;;;;;;12.69;61.34;95989.94;4177818;28;5724;-63
2023/04/15 08:11:51;;;;;;;;;;;;;;;12.71;61.37;95993.16;4176645;28;5704;-63
2023/04/15 08:13:54;;;;;;;;;;;;;;;12.72;61.48;95994.78;4173352;28;5960;-63
2023/04/15 08:16:19;;;;;;;;;;;;;;;12.72;61.24;95994.78;4174996;28;5104;-63
2023/04/15 08:18:24;;;;;;;;;;;;;;;12.76;61.65;95989.81;4173446;28;5780;-64
2023/04/15 08:20:26;;;;;;;;;;;;;;;12.76;61.58;95990.63;4178684;28;5700;-63
2023/04/15 08:22:29;;;;;;;;;;;;;;;12.81;61.34;95995.28;4176512;28;5839;-64
2023/04/15 08:24:32;;;;;;;;;;;;;;;12.84;61.49;96002.78;4179507;28;5742;-64
2023/04/15 08:26:35;;;;;;;;;;;;;;;12.83;61.59;95999.31;4185083;28;5918;-62
2023/04/15 08:28:39;;;;;;;;;;;;;;;12.85;61.43;96003.59;4179841;28;5806;-63
2023/04/15 08:30:42;;;;;;;;;;;;;;;12.83;61.32;96007.28;4176065;28;5712;-63
2023/04/15 08:32:46;;;;;;;;;;;;;;;12.83;61.67;96001.16;4182774;28;5076;-62
2023/04/15 08:34:50;;;;;;;;;;;;;;;12.86;61.60;96003.34;4177787;28;5700;-62
2023/04/15 08:36:53;;;;;;;;;;;;;;;12.89;61.39;96010.03;4187591;28;5707;-63
2023/04/15 08:38:56;;;;;;;;;;;;;;;12.86;61.40;96005.19;4187008;28;5843;-62
2023/04/15 08:41:03;;;;;;;;;;;;;;;12.87;61.47;96012.13;4190708;28;5811;-62
2023/04/15 08:43:09;;;;;;;;;;;;;;;12.89;61.43;96012.69;4198532;28;5921;-61
2023/04/15 08:45:12;;;;;;;;;;;;;;;12.90;61.65;96011.66;4190543;28;5753;-61
2023/04/15 08:47:21;;;;;;;;;;;;;;;12.88;61.63;96009.22;4194941;28;5811;-62
2023/04/15 08:49:27;;;;;;;;;;;;;;;12.86;61.46;96011.31;4190696;28;5918;-62
2023/04/15 08:51:31;;;;;;;;;;;;;;;12.85;61.70;96012.34;4201010;28;5710;-62
2023/04/15 08:53:34;;;;;;;;;;;;;;;12.88;61.78;96019.03;4197317;28;5628;-62
2023/04/15 08:55:43;;;;;;;;;;;;;;;12.89;61.65;96029.41;4199455;28;5652;-61
2023/04/15 08:57:46;;;;;;;;;;;;;;;12.89;61.53;96021.47;4189563;28;5650;-61
2023/04/15 08:59:51;;;;;;;;;;;;;;;12.87;61.59;96028.84;4206406;28;5631;-62
2023/04/15 09:01:55;;;;;;;;;;;;;;;12.81;61.79;96035.06;4192460;28;5663;-61
2023/04/15 09:03:59;;;;;;;;;;;;;;;12.81;61.78;96030.56;4196633;28;5676;-62
2023/04/15 09:06:04;;;;;;;;;;;;;;;12.80;61.70;96036.91;4184153;28;5730;-62
2023/04/15 09:08:08;;;;;;;;;;;;;;;12.83;61.50;96036.44;4192222;28;5642;-62
2023/04/15 09:10:12;;;;;;;;;;;;;;;12.85;61.33;96048.69;4194516;28;5658;-61
2023/04/15 09:12:15;;;;;;;;;;;;;;;12.82;61.11;96056.06;4197891;28;5743;-62
2023/04/15 09:14:18;;;;;;;;;;;;;;;12.80;61.03;96052.00;4199645;28;5801;-62
2023/04/15 09:16:21;;;;;;;;;;;;;;;12.77;60.87;96055.91;4200987;28;5711;-61
2023/04/15 09:18:29;;;;;;;;;;;;;;;12.75;60.85;96050.03;4196701;28;5631;-61
2023/04/15 09:20:39;;;;;;;;;;;;;;;12.75;61.02;96057.16;4189674;28;5643;-61
2023/04/15 09:22:43;;;;;;;;;;;;;;;12.71;60.94;96054.16;4195688;28;5755;-62
2023/04/15 09:24:47;;;;;;;;;;;;;;;12.70;60.92;96065.00;4182750;28;5734;-61
2023/04/15 09:26:54;;;;;;;;;;;;;;;12.68;60.65;96070.50;4190781;28;5723;-61
2023/04/15 09:29:04;;;;;;;;;;;;;;;12.70;60.52;96071.09;4198502;28;5827;-62
2023/04/15 09:31:06;;;;;;;;;;;;;;;12.72;60.38;96068.22;4192925;28;5706;-62
2023/04/15 09:33:09;;;;;;;;;;;;;;;12.69;60.51;96076.63;4195748;28;5707;-62
2023/04/15 09:35:13;;;;;;;;;;;;;;;12.68;60.46;96067.03;4191760;28;5837;-62
2023/04/15 09:37:19;;;;;;;;;;;;;;;12.67;60.26;96079.50;4192791;28;5769;-62
2023/04/15 09:39:51;;;;;;;;;;;;;;;12.70;60.24;96073.75;4193671;28;5699;-63
2023/04/15 09:42:07;;;;;;;;;;;;;;;12.73;60.27;96080.44;4190435;28;5941;-61
2023/04/15 09:44:22;;;;;;;;;;;;;;;12.74;60.28;96088.19;4188277;28;5714;-63
2023/04/15 09:46:41;;;;;;;;;;;;;;;12.75;60.46;96086.34;4189390;28;5639;-64
2023/04/15 09:48:44;;;;;;;;;;;;;;;12.77;60.12;96098.34;4194648;28;5865;-64
2023/04/15 09:50:48;;;;;;;;;;;;;;;12.77;60.39;96098.34;4198938;28;5706;-69
2023/04/15 09:52:51;;;;;;;;;;;;;;;12.76;59.89;96109.97;4196762;28;5639;-68
2023/04/15 09:54:58;;;;;;;;;;;;;;;12.73;60.16;96113.09;4187140;28;5733;-66
2023/04/15 09:57:06;;;;;;;;;;;;;;;12.74;60.22;96104.09;4192863;28;5726;-66
2023/04/15 09:59:09;;;;;;;;;;;;;;;12.77;60.24;96113.44;4192404;28;5745;-64
2023/04/15 10:01:12;;;;;;;;;;;;;;;12.77;60.04;96111.59;4195208;28;5830;-64
2023/04/15 10:03:17;;;;;;;;;;;;;;;12.78;59.97;96115.06;4202107;28;5771;-64
2023/04/15 10:05:22;;;;;;;;;;;;;;;12.78;60.17;96120.38;4199968;28;5607;-71
2023/04/15 10:07:25;;;;;;;;;;;;;;;12.79;60.02;96117.47;4197095;28;5635;-76
2023/04/15 10:09:30;;;;;;;;;;;;;;;12.79;60.18;96127.28;4195665;28;5784;-73
2023/04/15 10:11:35;;;;;;;;;;;;;;;12.77;60.04;96127.50;4201955;28;5627;-69
2023/04/15 10:13:39;;;;;;;;;;;;;;;12.78;60.11;96133.63;4195795;28;5698;-73
2023/04/15 10:15:44;;;;;;;;;;;;;;;12.77;60.31;96132.81;4194787;28;5698;-64
2023/04/15 10:17:50;;;;;;;;;;;;;;;12.77;59.90;96138.13;4194409;28;5730;-64
2023/04/15 10:19:54;;;;;;;;;;;;;;;12.73;59.89;96139.59;4187920;28;5626;-65
2023/04/15 10:21:58;;;;;;;;;;;;;;;12.72;59.78;96138.00;4200198;28;5638;-65
2023/04/15 10:24:03;;;;;;;;;;;;;;;12.74;59.93;96140.41;4199092;28;5655;-65
2023/04/15 10:26:08;;;;;;;;;;;;;;;12.71;59.99;96144.34;4195531;28;5632;-65
2023/04/15 10:28:12;;;;;;;;;;;;;;;12.73;59.84;96152.88;4194352;28;5839;-65
2023/04/15 10:30:16;;;;;;;;;;;;;;;12.75;59.61;96148.16;4197056;28;5482;-65
2023/04/15 10:32:21;;;;;;;;;;;;;;;12.75;59.70;96158.75;4193595;28;5824;-64
2023/04/15 10:34:24;;;;;;;;;;;;;;;12.79;59.47;96151.97;4196283;28;5733;-65
2023/04/15 10:36:27;;;;;;;;;;;;;;;12.83;59.93;96163.78;4199171;28;5651;-65
2023/04/15 10:38:39;;;;;;;;;;;;;;;12.83;59.54;96162.97;4194912;28;5644;-65
2023/04/15 10:40:42;;;;;;;;;;;;;;;12.84;59.81;96161.94;4197658;28;5650;-65
2023/04/15 10:42:45;;;;;;;;;;;;;;;12.87;59.35;96164.13;4200934;28;5855;-65
2023/04/15 10:44:51;;;;;;;;;;;;;;;12.90;59.31;96161.03;4200905;28;5707;-65
2023/04/15 10:46:58;;;;;;;;;;;;;;;12.88;59.33;96157.78;4193355;28;5611;-63
2023/04/15 10:49:08;;;;;;;;;;;;;;;12.85;59.68;96168.03;4187509;28;5742;-65
2023/04/15 10:51:14;;;;;;;;;;;;;;;12.85;59.62;96168.03;4201209;28;5628;-68
2023/04/15 10:53:28;;;;;;;;;;;;;;;12.79;59.31;96159.91;4188712;28;5740;-66